createdAt,value
2022-08-30T00:01:25.688Z,2.03
2022-08-30T00:03:55.092Z,1.92
2022-08-30T00:06:22.945Z,2.10
2022-08-30T00:08:50.473Z,2.20
2022-08-30T00:11:28.329Z,2.45
2022-08-30T00:13:57.969Z,2.50
2022-08-30T00:16:26.605Z,2.03
2022-08-30T00:18:54.348Z,2.70
2022-08-30T00:21:22.118Z,2.30
2022-08-30T00:23:48.813Z,2.50
2022-08-30T00:26:15.544Z,2.40
2022-08-30T00:28:42.293Z,2.45
2022-08-30T00:31:09.055Z,2.08
2022-08-30T00:33:36.220Z,2.50
2022-08-30T00:36:03.804Z,2.10
2022-08-30T00:38:30.574Z,2.63
2022-08-30T00:40:57.318Z,2.53
2022-08-30T00:43:30.381Z,2.35
2022-08-30T00:45:57.929Z,2.28
2022-08-30T00:48:25.077Z,2.47
2022-08-30T00:50:58.436Z,2.25
2022-08-30T00:53:30.662Z,2.70
2022-08-30T00:56:00.356Z,2.63
2022-08-30T00:58:38.297Z,2.40
2022-08-30T01:01:07.504Z,2.22
2022-08-30T01:03:35.925Z,2.33
2022-08-30T01:06:05.039Z,2.38
2022-08-30T01:08:31.764Z,2.80
2022-08-30T01:10:59.490Z,2.35
2022-08-30T01:13:29.146Z,2.45
2022-08-30T01:15:56.472Z,3.00
2022-08-30T01:18:23.955Z,2.65
2022-08-30T01:21:08.351Z,2.88
2022-08-30T01:23:40.349Z,2.63
2022-08-30T01:26:07.551Z,2.20
2022-08-30T01:28:35.219Z,2.70
2022-08-30T01:31:02.260Z,2.85
2022-08-30T01:33:29.101Z,2.70
2022-08-30T01:36:03.353Z,2.20
2022-08-30T01:38:53.829Z,2.75
2022-08-30T01:41:24.743Z,2.45
2022-08-30T01:43:56.201Z,2.60
2022-08-30T01:46:27.859Z,2.50
2022-08-30T01:48:56.790Z,2.53
2022-08-30T01:51:27.115Z,2.50
2022-08-30T01:53:54.690Z,2.83
2022-08-30T01:56:22.808Z,2.83
2022-08-30T01:58:50.231Z,2.42
2022-08-30T02:01:21.918Z,2.63
2022-08-30T02:03:48.969Z,2.60
2022-08-30T02:06:19.143Z,2.83
2022-08-30T02:08:47.189Z,3.60
2022-08-30T02:11:15.013Z,2.55
2022-08-30T02:13:43.928Z,2.40
2022-08-30T02:16:16.108Z,2.60
2022-08-30T02:18:43.906Z,2.53
2022-08-30T02:21:12.628Z,2.45
2022-08-30T02:23:39.299Z,2.47
2022-08-30T02:26:06.215Z,3.15
2022-08-30T02:28:32.994Z,2.83
2022-08-30T02:31:00.217Z,3.03
2022-08-30T02:33:27.091Z,2.97
2022-08-30T02:35:54.009Z,2.85
2022-08-30T02:38:20.739Z,2.65
2022-08-30T02:40:47.594Z,2.65
2022-08-30T02:43:14.462Z,2.72
2022-08-30T02:45:41.246Z,2.42
2022-08-30T02:48:07.988Z,2.47
2022-08-30T02:50:35.140Z,3.40
2022-08-30T02:53:01.821Z,2.78
2022-08-30T02:55:28.447Z,2.90
2022-08-30T02:57:55.103Z,2.33
2022-08-30T03:00:22.124Z,3.10
2022-08-30T03:02:49.314Z,3.22
2022-08-30T03:05:17.305Z,3.17
2022-08-30T03:07:45.673Z,2.67
2022-08-30T03:10:13.954Z,2.78
2022-08-30T03:12:42.037Z,4.15
2022-08-30T03:15:13.218Z,3.00
2022-08-30T03:17:40.848Z,3.47
2022-08-30T03:20:09.525Z,3.47
2022-08-30T03:22:36.392Z,2.88
2022-08-30T03:25:05.044Z,2.75
2022-08-30T03:27:31.891Z,3.00
2022-08-30T03:29:58.572Z,2.80
2022-08-30T03:32:25.381Z,3.33
2022-08-30T03:34:52.055Z,2.80
2022-08-30T03:37:23.309Z,3.30
2022-08-30T03:39:52.571Z,3.50
2022-08-30T03:42:19.948Z,2.70
2022-08-30T03:44:48.425Z,3.63
2022-08-30T03:47:15.456Z,3.33
2022-08-30T03:49:42.631Z,3.10
2022-08-30T03:52:09.308Z,3.40
2022-08-30T03:54:36.008Z,3.60
2022-08-30T03:57:03.353Z,3.88
2022-08-30T03:59:30.049Z,3.65
2022-08-30T04:01:56.820Z,3.05
2022-08-30T04:04:23.560Z,3.33
2022-08-30T04:06:50.283Z,4.10
2022-08-30T04:09:18.562Z,2.85
2022-08-30T04:11:45.295Z,3.33
2022-08-30T04:14:12.116Z,3.67
2022-08-30T04:16:38.840Z,3.85
2022-08-30T04:19:05.673Z,4.30
2022-08-30T04:21:32.342Z,4.15
2022-08-30T04:24:01.848Z,3.40
2022-08-30T04:26:29.388Z,3.80
2022-08-30T04:28:58.099Z,3.50
2022-08-30T04:31:26.613Z,3.33
2022-08-30T04:33:53.266Z,3.72
2022-08-30T04:36:20.029Z,3.42
2022-08-30T04:38:46.665Z,3.55
2022-08-30T04:41:18.224Z,4.40
2022-08-30T04:43:49.329Z,3.47
2022-08-30T04:46:16.382Z,5.28
2022-08-30T04:48:43.409Z,3.40
2022-08-30T04:51:14.177Z,4.15
2022-08-30T04:53:42.557Z,3.88
2022-08-30T04:56:16.828Z,4.20
2022-08-30T04:58:48.926Z,3.72
2022-08-30T05:01:23.921Z,3.58
2022-08-30T05:03:52.559Z,3.63
2022-08-30T05:06:21.390Z,4.15
2022-08-30T05:08:48.151Z,3.65
2022-08-30T05:11:16.937Z,5.03
2022-08-30T05:13:44.177Z,3.53
2022-08-30T05:16:17.477Z,4.40
2022-08-30T05:18:46.734Z,4.28
2022-08-30T05:21:21.691Z,3.95
2022-08-30T05:23:49.864Z,3.85
2022-08-30T05:26:25.063Z,4.25
2022-08-30T05:28:52.690Z,3.85
2022-08-30T05:31:25.593Z,4.32
2022-08-30T05:33:54.610Z,4.35
2022-08-30T05:36:27.631Z,3.80
2022-08-30T05:38:55.391Z,4.18
2022-08-30T05:41:26.643Z,3.40
2022-08-30T05:43:59.229Z,3.97
2022-08-30T05:46:30.029Z,4.00
2022-08-30T05:48:57.819Z,3.90
2022-08-30T05:51:28.656Z,4.47
2022-08-30T05:53:57.983Z,4.00
2022-08-30T05:56:34.938Z,3.92
2022-08-30T05:59:05.046Z,3.53
2022-08-30T06:01:45.523Z,4.07
2022-08-30T06:04:13.789Z,4.07
2022-08-30T06:06:43.029Z,3.90
2022-08-30T06:09:12.407Z,3.40
2022-08-30T06:11:39.090Z,3.40
2022-08-30T06:14:06.536Z,3.40
2022-08-30T06:16:34.039Z,3.15
2022-08-30T06:19:01.450Z,3.22
2022-08-30T06:21:32.126Z,3.85
2022-08-30T06:23:59.146Z,3.72
2022-08-30T06:26:27.987Z,3.50
2022-08-30T06:28:56.567Z,3.65
2022-08-30T06:31:25.759Z,3.33
2022-08-30T06:33:52.852Z,3.08
2022-08-30T06:36:24.147Z,2.83
2022-08-30T06:38:58.154Z,2.88
2022-08-30T06:41:30.509Z,3.20
2022-08-30T06:43:58.910Z,3.45
2022-08-30T06:46:30.438Z,3.25
2022-08-30T06:48:57.283Z,3.60
2022-08-30T06:51:30.195Z,3.10
2022-08-30T06:53:57.981Z,3.03
2022-08-30T06:56:27.424Z,3.33
2022-08-30T06:58:54.406Z,2.95
2022-08-30T07:01:26.097Z,3.63
2022-08-30T07:03:53.411Z,3.03
2022-08-30T07:06:21.027Z,3.20
2022-08-30T07:08:50.516Z,3.67
2022-08-30T07:11:32.875Z,3.38
2022-08-30T07:14:00.438Z,3.80
2022-08-30T07:16:27.750Z,3.00
2022-08-30T07:18:55.831Z,3.03
2022-08-30T07:21:39.500Z,3.30
2022-08-30T07:24:09.873Z,2.97
2022-08-30T07:26:46.752Z,2.90
2022-08-30T07:29:13.462Z,3.63
2022-08-30T07:31:40.464Z,2.88
2022-08-30T07:34:08.280Z,2.83
2022-08-30T07:36:38.103Z,3.53
2022-08-30T07:39:06.356Z,2.85
2022-08-30T07:41:38.803Z,3.20
2022-08-30T07:44:07.770Z,2.90
2022-08-30T07:46:35.527Z,3.17
2022-08-30T07:49:04.187Z,2.90
2022-08-30T07:51:32.356Z,2.72
2022-08-30T07:54:00.371Z,2.67
2022-08-30T07:56:27.165Z,2.60
2022-08-30T07:58:53.873Z,2.65
2022-08-30T08:01:22.286Z,2.60
2022-08-30T08:03:50.406Z,2.50
2022-08-30T08:06:20.756Z,2.90
2022-08-30T08:08:47.746Z,2.30
2022-08-30T08:11:19.678Z,2.45
2022-08-30T08:13:53.429Z,3.25
2022-08-30T08:16:27.827Z,2.60
2022-08-30T08:18:55.210Z,2.50
2022-08-30T08:21:24.032Z,2.58
2022-08-30T08:23:51.427Z,2.17
2022-08-30T08:26:19.793Z,2.33
2022-08-30T08:28:47.113Z,2.63
2022-08-30T08:31:33.061Z,2.80
2022-08-30T08:36:34.432Z,2.30
2022-08-30T08:39:02.812Z,2.47
2022-08-30T08:42:19.911Z,2.08
2022-08-30T08:45:00.173Z,2.75
2022-08-30T08:47:47.070Z,2.05
2022-08-30T08:50:20.490Z,2.33
2022-08-30T08:53:50.714Z,2.38
2022-08-30T08:56:19.598Z,2.53
2022-08-30T08:58:47.829Z,2.30
2022-08-30T09:01:18.877Z,2.33
2022-08-30T09:03:47.009Z,2.38
2022-08-30T09:06:37.943Z,2.08
2022-08-30T09:09:08.786Z,2.33
2022-08-30T09:11:37.457Z,2.65
2022-08-30T09:14:10.579Z,2.38
2022-08-30T09:17:02.820Z,2.83
2022-08-30T09:19:44.963Z,2.40
2022-08-30T09:22:31.011Z,2.20
2022-08-30T09:25:12.220Z,2.50
2022-08-30T09:27:44.723Z,2.10
2022-08-30T09:30:17.411Z,2.00
2022-08-30T09:32:56.898Z,1.75
2022-08-30T09:35:47.067Z,2.45
2022-08-30T09:38:23.050Z,2.00
2022-08-30T09:40:57.444Z,2.33
2022-08-30T09:43:34.105Z,2.10
2022-08-30T09:46:00.843Z,2.33
2022-08-30T09:48:35.335Z,2.13
2022-08-30T09:51:10.920Z,2.30
2022-08-30T09:54:17.902Z,2.10
2022-08-30T09:57:19.202Z,1.90
2022-08-30T10:00:02.007Z,2.00
2022-08-30T10:03:14.303Z,1.95
2022-08-30T10:05:53.543Z,2.00
2022-08-30T10:08:52.804Z,2.25
2022-08-30T10:11:43.595Z,1.92
2022-08-30T10:14:38.109Z,2.03
2022-08-30T10:17:42.146Z,2.17
2022-08-30T10:20:26.198Z,1.90
2022-08-30T10:23:21.413Z,1.70
2022-08-30T10:26:31.789Z,2.05
2022-08-30T10:29:25.735Z,2.17
2022-08-30T10:31:59.161Z,2.00
2022-08-30T10:34:32.497Z,2.05
2022-08-30T10:37:13.345Z,1.63
2022-08-30T10:39:52.050Z,2.83
2022-08-30T10:42:38.058Z,1.55
2022-08-30T10:45:15.802Z,2.22
2022-08-30T10:47:59.514Z,1.88
2022-08-30T10:50:41.026Z,1.58
2022-08-30T10:53:24.003Z,1.98
2022-08-30T10:55:58.410Z,1.85
2022-08-30T10:58:25.291Z,2.00
2022-08-30T11:01:24.554Z,2.13
2022-08-30T11:04:21.136Z,1.80
2022-08-30T11:07:27.885Z,1.90
2022-08-30T11:10:37.018Z,1.77
2022-08-30T11:13:11.548Z,1.75
2022-08-30T11:16:07.229Z,2.05
2022-08-30T11:18:56.287Z,2.25
2022-08-30T11:21:39.921Z,2.05
2022-08-30T11:24:27.303Z,2.03
2022-08-30T11:26:58.801Z,1.55
2022-08-30T11:29:43.463Z,1.98
2022-08-30T11:32:13.042Z,1.83
2022-08-30T11:34:45.657Z,2.17
2022-08-30T11:37:44.486Z,1.70
2022-08-30T11:40:19.900Z,2.50
2022-08-30T11:42:53.506Z,1.85
2022-08-30T11:45:25.130Z,2.00
2022-08-30T11:48:04.592Z,2.05
2022-08-30T11:50:55.453Z,1.80
2022-08-30T11:53:31.051Z,2.17
2022-08-30T11:56:36.776Z,2.13
2022-08-30T11:59:24.960Z,1.67
2022-08-30T12:01:52.403Z,1.60
2022-08-30T12:04:22.825Z,1.65
2022-08-30T12:07:00.620Z,1.63
2022-08-30T12:09:28.101Z,1.50
2022-08-30T12:12:02.618Z,1.92
2022-08-30T12:14:52.580Z,1.80
2022-08-30T12:17:44.426Z,1.70
2022-08-30T12:20:30.770Z,1.75
2022-08-30T12:23:13.108Z,2.13
2022-08-30T12:25:40.384Z,1.67
2022-08-30T12:28:26.251Z,1.40
2022-08-30T12:30:53.558Z,2.05
2022-08-30T12:33:40.141Z,1.60
2022-08-30T12:36:31.347Z,1.58
2022-08-30T12:39:15.986Z,1.80
2022-08-30T12:41:44.304Z,1.85
2022-08-30T12:44:27.635Z,1.70
2022-08-30T12:47:00.903Z,1.75
2022-08-30T12:49:33.880Z,1.80
2022-08-30T12:52:40.321Z,1.75
2022-08-30T12:55:29.345Z,1.88
2022-08-30T12:58:13.964Z,1.90
2022-08-30T13:00:46.403Z,1.45
2022-08-30T13:03:29.058Z,1.90
2022-08-30T13:05:57.459Z,1.40
2022-08-30T13:08:38.112Z,2.00
2022-08-30T13:11:12.343Z,1.95
2022-08-30T13:13:44.253Z,1.67
2022-08-30T13:16:20.593Z,2.13
2022-08-30T13:19:25.822Z,1.70
2022-08-30T13:21:56.199Z,2.15
2022-08-30T13:24:25.476Z,1.73
2022-08-30T13:26:55.801Z,1.52
2022-08-30T13:29:27.293Z,1.77
2022-08-30T13:31:54.696Z,1.77
2022-08-30T13:34:22.810Z,1.50
2022-08-30T13:36:56.384Z,1.48
2022-08-30T13:39:23.273Z,2.00
2022-08-30T13:41:51.622Z,2.00
2022-08-30T13:44:18.590Z,1.50
2022-08-30T13:46:54.428Z,2.10
2022-08-30T13:49:45.639Z,1.88
2022-08-30T13:52:22.844Z,2.00
2022-08-30T13:54:55.439Z,2.08
2022-08-30T14:00:19.042Z,1.70
2022-08-30T14:02:54.243Z,1.83
2022-08-30T14:11:04.544Z,1.88
2022-08-30T14:13:31.682Z,1.63
2022-08-30T14:18:51.529Z,1.90
2022-08-30T14:21:21.491Z,1.83
2022-08-30T14:23:58.679Z,1.55
2022-08-30T14:26:33.777Z,2.20
2022-08-30T14:29:09.201Z,1.67
2022-08-30T14:31:38.359Z,1.77
2022-08-30T14:34:07.454Z,1.98
2022-08-30T14:36:37.022Z,1.90
2022-08-30T14:39:09.654Z,1.55
2022-08-30T14:41:44.189Z,1.80
2022-08-30T14:44:13.713Z,1.88
2022-08-30T14:46:41.371Z,1.63
2022-08-30T14:49:10.274Z,2.20
2022-08-30T14:51:39.103Z,2.28
2022-08-30T14:54:05.907Z,1.90
2022-08-30T14:56:32.652Z,2.03
2022-08-30T14:59:02.588Z,1.88
2022-08-30T15:01:31.199Z,1.80
2022-08-30T15:03:59.211Z,2.20
2022-08-30T15:06:27.987Z,2.25
2022-08-30T15:08:56.264Z,2.55
2022-08-30T15:11:25.728Z,2.13
2022-08-30T15:13:53.897Z,2.13
2022-08-30T15:16:30.600Z,2.10
2022-08-30T15:18:59.623Z,2.20
2022-08-30T15:21:40.490Z,1.95
2022-08-30T15:24:10.715Z,2.50
2022-08-30T15:26:41.522Z,2.15
2022-08-30T15:29:14.485Z,2.20
2022-08-30T15:31:42.287Z,2.00
2022-08-30T15:34:12.021Z,2.33
2022-08-30T15:36:39.774Z,2.53
2022-08-30T15:39:09.683Z,2.17
2022-08-30T15:41:37.570Z,2.35
2022-08-30T15:44:06.800Z,2.20
2022-08-30T15:46:41.051Z,2.20
2022-08-30T15:49:27.067Z,2.07
2022-08-30T15:51:54.050Z,2.17
2022-08-30T15:54:23.341Z,2.17
2022-08-30T15:56:52.133Z,2.45
2022-08-30T15:59:19.265Z,2.30
2022-08-30T16:01:47.323Z,2.00
2022-08-30T16:04:17.061Z,2.03
2022-08-30T16:06:46.708Z,1.90
2022-08-30T16:09:13.850Z,1.98
2022-08-30T16:11:40.871Z,2.15
2022-08-30T16:14:08.216Z,1.80
2022-08-30T16:16:37.691Z,2.15
2022-08-30T16:19:05.425Z,2.53
2022-08-30T16:21:36.709Z,2.03
2022-08-30T16:24:06.900Z,2.28
2022-08-30T16:26:35.849Z,2.30
2022-08-30T16:29:07.153Z,2.00
2022-08-30T16:31:35.249Z,2.70
2022-08-30T16:34:02.641Z,2.22
2022-08-30T16:36:32.905Z,2.55
2022-08-30T16:39:00.520Z,1.90
2022-08-30T16:41:28.284Z,1.88
2022-08-30T16:43:56.065Z,1.95
2022-08-30T16:46:27.121Z,1.90
2022-08-30T16:48:58.120Z,2.08
2022-08-30T16:51:27.967Z,2.35
2022-08-30T16:54:02.862Z,2.70
2022-08-30T16:56:31.982Z,1.95
2022-08-30T16:59:02.511Z,1.95
2022-08-30T17:01:32.497Z,2.15
2022-08-30T17:04:03.621Z,2.42
2022-08-30T17:06:30.417Z,2.00
2022-08-30T17:08:58.845Z,2.80
2022-08-30T17:11:25.921Z,2.72
2022-08-30T17:13:53.230Z,2.10
2022-08-30T17:16:27.572Z,2.22
2022-08-30T17:19:00.081Z,1.95
2022-08-30T17:21:29.612Z,1.75
2022-08-30T17:24:01.729Z,2.15
2022-08-30T17:26:34.440Z,2.85
2022-08-30T17:29:01.488Z,1.65
2022-08-30T17:31:30.640Z,2.03
2022-08-30T17:34:03.518Z,2.15
2022-08-30T17:39:23.354Z,1.80
2022-08-30T17:41:51.548Z,2.17
2022-08-30T17:44:25.609Z,1.60
2022-08-30T17:46:53.750Z,1.92
2022-08-30T17:49:21.200Z,2.30
2022-08-30T17:51:55.521Z,1.77
2022-08-30T17:54:24.493Z,1.60
2022-08-30T17:56:52.898Z,1.65
2022-08-30T17:59:20.080Z,1.75
2022-08-30T18:01:54.716Z,1.60
2022-08-30T18:04:22.301Z,1.77
2022-08-30T18:06:52.227Z,1.90
2022-08-30T18:09:19.204Z,2.53
2022-08-30T18:11:46.798Z,1.70
2022-08-30T18:14:16.230Z,2.03
2022-08-30T18:16:50.000Z,1.35
2022-08-30T18:19:20.567Z,1.67
2022-08-30T18:21:47.298Z,1.42
2022-08-30T18:24:16.741Z,1.85
2022-08-30T18:26:43.498Z,1.80
2022-08-30T18:29:11.050Z,1.40
2022-08-30T18:31:40.804Z,1.95
2022-08-30T18:34:12.275Z,1.80
2022-08-30T18:36:40.370Z,1.50
2022-08-30T18:39:08.621Z,1.40
2022-08-30T18:41:42.144Z,1.83
2022-08-30T18:44:27.373Z,1.77
2022-08-30T18:47:31.988Z,2.00
2022-08-30T18:49:43.084Z,2.03
2022-08-30T18:52:10.730Z,1.63
2022-08-30T18:54:41.416Z,1.50
2022-08-30T18:57:08.578Z,1.58
2022-08-30T18:59:37.774Z,1.48
2022-08-30T19:02:11.204Z,1.63
2022-08-30T19:04:42.758Z,1.40
2022-08-30T19:07:12.690Z,1.75
2022-08-30T19:09:39.921Z,1.80
2022-08-30T19:12:07.756Z,1.40
2022-08-30T19:14:36.729Z,1.60
2022-08-30T19:17:06.860Z,1.60
2022-08-30T19:19:34.767Z,1.33
2022-08-30T19:22:03.082Z,1.63
2022-08-30T19:24:29.766Z,1.13
2022-08-30T19:26:56.873Z,1.50
2022-08-30T19:29:23.653Z,1.33
2022-08-30T19:31:51.840Z,1.40
2022-08-30T19:34:19.153Z,1.85
2022-08-30T19:36:45.827Z,1.67
2022-08-30T19:39:14.290Z,1.95
2022-08-30T19:41:41.545Z,1.30
2022-08-30T19:44:09.318Z,1.63
2022-08-30T19:46:36.532Z,1.98
2022-08-30T19:49:05.007Z,1.75
2022-08-30T19:51:31.753Z,2.40
2022-08-30T19:54:00.357Z,1.70
2022-08-30T19:56:27.020Z,1.83
2022-08-30T19:58:54.210Z,1.85
2022-08-30T20:01:33.091Z,1.42
2022-08-30T20:04:02.079Z,1.63
2022-08-30T20:06:30.310Z,2.40
2022-08-30T20:08:57.834Z,1.38
2022-08-30T20:11:25.146Z,1.90
2022-08-30T20:13:51.869Z,2.10
2022-08-30T20:16:18.774Z,2.10
2022-08-30T20:18:45.794Z,1.73
2022-08-30T20:21:14.347Z,1.92
2022-08-30T20:23:43.249Z,2.40
2022-08-30T20:24:23.823Z,1.70
2022-08-30T20:26:11.815Z,1.73
2022-08-30T20:28:40.113Z,1.80
2022-08-30T20:31:09.011Z,2.00
2022-08-30T20:33:38.818Z,2.15
2022-08-30T20:36:09.700Z,2.08
2022-08-30T20:38:36.557Z,2.00
2022-08-30T20:41:10.540Z,1.80
2022-08-30T20:43:38.192Z,2.03
2022-08-30T20:46:12.015Z,2.28
2022-08-30T20:48:39.404Z,2.35
2022-08-30T20:51:18.288Z,1.70
2022-08-30T20:53:45.849Z,1.95
2022-08-30T20:56:22.541Z,2.13
2022-08-30T20:58:50.143Z,1.70
2022-08-30T21:01:17.585Z,2.10
2022-08-30T21:03:46.703Z,2.10
2022-08-30T21:06:16.213Z,2.22
2022-08-30T21:08:43.754Z,1.73
2022-08-30T21:11:10.729Z,1.95
2022-08-30T21:13:37.542Z,1.92
2022-08-30T21:16:05.789Z,2.08
2022-08-30T21:18:35.716Z,2.00
2022-08-30T21:21:16.125Z,1.88
2022-08-30T21:23:42.925Z,2.10
2022-08-30T21:26:10.949Z,1.50
2022-08-30T21:28:38.760Z,1.80
2022-08-30T21:31:19.107Z,2.30
2022-08-30T21:33:49.627Z,1.90
2022-08-30T21:36:36.477Z,1.77
2022-08-30T21:39:05.440Z,1.73
2022-08-30T21:41:34.891Z,2.17
2022-08-30T21:44:08.629Z,2.15
2022-08-30T21:46:36.875Z,1.98
2022-08-30T21:49:07.344Z,1.80
2022-08-30T21:51:39.226Z,1.83
2022-08-30T21:54:08.651Z,1.85
2022-08-30T21:56:38.483Z,1.90
2022-08-30T21:59:07.179Z,2.03
2022-08-30T22:01:34.910Z,1.98
2022-08-30T22:04:07.553Z,1.90
2022-08-30T22:06:36.675Z,1.90
2022-08-30T22:09:07.432Z,2.00
2022-08-30T22:11:35.921Z,2.20
2022-08-30T22:14:06.750Z,2.15
2022-08-30T22:16:35.744Z,1.70
2022-08-30T22:19:03.588Z,1.70
2022-08-30T22:21:34.599Z,1.85
2022-08-30T22:24:01.421Z,2.40
2022-08-30T22:26:28.490Z,2.47
2022-08-30T22:28:55.831Z,1.77
2022-08-30T22:31:24.094Z,1.83
2022-08-30T22:33:53.024Z,2.17
2022-08-30T22:36:32.643Z,1.95
2022-08-30T22:39:01.613Z,2.00
2022-08-30T22:41:31.164Z,1.73
2022-08-30T22:43:58.545Z,2.10
2022-08-30T22:46:33.794Z,2.33
2022-08-30T22:49:02.254Z,2.10
2022-08-30T22:51:29.247Z,1.77
2022-08-30T22:53:56.229Z,1.70
2022-08-30T22:56:25.827Z,1.85
2022-08-30T22:58:54.798Z,2.10
2022-08-30T23:01:26.685Z,1.50
2022-08-30T23:03:54.180Z,2.38
2022-08-30T23:06:22.055Z,2.10
2022-08-30T23:08:49.428Z,2.00
2022-08-30T23:11:16.849Z,2.38
2022-08-30T23:13:44.733Z,1.90
2022-08-30T23:16:13.990Z,1.83
2022-08-30T23:18:43.444Z,2.30
2022-08-30T23:21:18.388Z,2.65
2022-08-30T23:24:03.861Z,2.10
2022-08-30T23:26:49.244Z,2.13
2022-08-30T23:29:34.964Z,2.58
2022-08-30T23:32:20.853Z,2.20
2022-08-30T23:35:05.950Z,2.22
2022-08-30T23:37:53.124Z,2.70
2022-08-30T23:40:41.583Z,2.47
2022-08-30T23:43:28.268Z,3.15
2022-08-30T23:46:18.807Z,4.22
2022-08-30T23:49:06.748Z,2.70
2022-08-30T23:51:53.842Z,3.90
2022-08-30T23:54:39.304Z,3.95
2022-08-30T23:57:25.170Z,5.03
